Time;durP1;ratioP1;P1;durP2;ratioP2;P2;SDS_P1;SDS_P2;PMS_P1;PMS_P2;Temp;Humidity;BMP_temperature;BMP_pressure;BME280_temperature;BME280_humidity;BME280_pressure;Samples;Min_cycle;Max_cycle;Signal;HPM_P1;HPM_P2
2023/08/23 00:00:12;;;;;;;12.20;8.60;;;;;;;20.41;100.00;98003.20;106987;1279;24357;-86
2023/08/23 00:03:00;;;;;;;11.50;9.40;;;;;;;20.37;100.00;98001.58;107044;1280;24723;-86
2023/08/23 00:05:28;;;;;;;12.80;9.10;;;;;;;20.35;100.00;98003.34;106615;1281;22656;-85
2023/08/23 00:07:56;;;;;;;10.80;9.60;;;;;;;20.33;100.00;98007.11;106722;1279;24280;-87
2023/08/23 00:10:55;;;;;;;14.00;9.80;;;;;;;20.32;100.00;98004.84;106926;1279;22675;-84
2023/08/23 00:14:04;;;;;;;14.40;9.80;;;;;;;20.31;100.00;97992.92;106768;1273;22724;-85
2023/08/23 00:16:52;;;;;;;10.80;9.30;;;;;;;20.31;100.00;97983.23;106686;1271;22584;-86
2023/08/23 00:20:00;;;;;;;10.90;9.40;;;;;;;20.32;100.00;97978.95;106828;1267;22535;-83
2023/08/23 00:23:45;;;;;;;13.10;9.40;;;;;;;20.31;100.00;97982.85;106776;1277;25236;-83
2023/08/23 00:26:55;;;;;;;11.50;9.10;;;;;;;20.27;100.00;97980.89;106594;1273;25225;-81
2023/08/23 00:29:23;;;;;;;11.10;8.80;;;;;;;20.26;100.00;97977.96;106505;1284;179028;-82
2023/08/23 00:31:52;;;;;;;11.10;9.90;;;;;;;20.29;100.00;97973.09;106629;1268;22545;-81
2023/08/23 00:34:20;;;;;;;10.60;9.50;;;;;;;20.29;100.00;97968.48;106596;1281;22589;-80
2023/08/23 00:36:48;;;;;;;10.30;9.30;;;;;;;20.31;100.00;97970.17;106627;1276;22610;-80
2023/08/23 00:39:16;;;;;;;12.70;9.80;;;;;;;20.31;100.00;97967.05;106635;1283;22679;-80
2023/08/23 00:41:44;;;;;;;11.30;8.90;;;;;;;20.32;100.00;97969.88;106618;1275;24677;-81
2023/08/23 00:44:12;;;;;;;10.10;9.00;;;;;;;20.32;100.00;97968.55;106611;1280;23262;-81
2023/08/23 00:46:40;;;;;;;10.30;9.20;;;;;;;20.33;100.00;97969.04;106704;1283;25276;-82
2023/08/23 00:49:08;;;;;;;14.10;8.80;;;;;;;20.35;100.00;97971.98;106641;1283;22646;-81
2023/08/23 00:51:36;;;;;;;11.70;9.20;;;;;;;20.39;100.00;97967.52;106700;1274;24212;-81
2023/08/23 00:54:05;;;;;;;10.90;9.80;;;;;;;20.42;100.00;97963.58;106801;1280;22559;-81
2023/08/23 00:56:33;;;;;;;10.50;9.40;;;;;;;20.46;100.00;97958.41;106959;1276;22742;-81
2023/08/23 00:59:02;;;;;;;10.90;9.80;;;;;;;20.49;100.00;97958.31;106950;1280;22630;-80
2023/08/23 01:01:30;;;;;;;12.40;11.10;;;;;;;20.52;100.00;97962.06;106798;1274;24402;-81
2023/08/23 01:03:58;;;;;;;12.80;10.10;;;;;;;20.54;100.00;97964.30;106889;1280;22533;-81
2023/08/23 01:06:34;;;;;;;11.60;10.10;;;;;;;20.54;100.00;97957.11;106992;1280;22598;-80
2023/08/23 01:09:16;;;;;;;12.30;11.10;;;;;;;20.55;100.00;97948.52;107111;1260;22530;-84
2023/08/23 01:11:52;;;;;;;12.90;10.00;;;;;;;20.57;100.00;97935.20;107922;1265;24365;-81
2023/08/23 01:14:39;;;;;;;14.20;11.10;;;;;;;20.59;100.00;97930.39;107613;1264;22534;-79
2023/08/23 01:17:08;;;;;;;11.70;10.30;;;;;;;20.62;100.00;97942.09;108150;1280;25400;-80
2023/08/23 01:19:45;;;;;;;12.70;10.40;;;;;;;20.60;100.00;97950.27;107052;1280;22657;-80
2023/08/23 01:22:18;;;;;;;14.90;11.10;;;;;;;20.58;100.00;97958.76;106933;1279;22877;-80
2023/08/23 01:24:51;;;;;;;12.70;11.20;;;;;;;20.55;100.00;97954.70;106647;1279;22553;-80
2023/08/23 01:27:19;;;;;;;13.30;11.10;;;;;;;20.53;100.00;97947.63;106986;1265;23003;-80
2023/08/23 01:29:47;;;;;;;16.60;11.50;;;;;;;20.52;100.00;97950.35;106961;1273;22568;-80
2023/08/23 01:32:30;;;;;;;12.10;11.00;;;;;;;20.47;100.00;97958.60;106960;1274;24391;-81
2023/08/23 01:35:06;;;;;;;13.00;11.60;;;;;;;20.41;100.00;97952.31;106936;1265;22639;-80
2023/08/23 01:37:38;;;;;;;12.80;9.70;;;;;;;20.40;100.00;97935.96;106986;1265;24161;-80
2023/08/23 01:40:09;;;;;;;12.60;10.70;;;;;;;20.45;100.00;97932.21;107069;1268;23554;-81
2023/08/23 01:42:39;;;;;;;11.50;10.30;;;;;;;20.50;100.00;97935.67;106973;1279;22622;-81
2023/08/23 01:45:08;;;;;;;12.60;11.20;;;;;;;20.52;100.00;97939.45;107058;1265;25514;-80
2023/08/23 01:47:36;;;;;;;13.20;10.90;;;;;;;20.52;100.00;97940.30;107047;1279;23160;-81
2023/08/23 01:50:05;;;;;;;13.00;9.60;;;;;;;20.50;100.00;97937.30;106998;1279;22586;-81
2023/08/23 01:52:33;;;;;;;11.80;9.70;;;;;;;20.50;100.00;97929.88;106931;1273;22557;-81
2023/08/23 01:55:00;;;;;;;12.60;9.60;;;;;;;20.50;100.00;97930.33;106960;1279;25340;-79
2023/08/23 01:57:30;;;;;;;13.20;11.00;;;;;;;20.52;100.00;97935.40;107058;1266;22531;-79
2023/08/23 01:59:58;;;;;;;13.10;11.70;;;;;;;20.52;100.00;97939.13;106823;1278;22549;-79
2023/08/23 02:02:26;;;;;;;11.10;10.00;;;;;;;20.53;100.00;97939.73;106451;1268;24208;-79
2023/08/23 02:04:54;;;;;;;12.90;10.40;;;;;;;20.53;100.00;97939.35;106451;1279;24391;-80
2023/08/23 02:07:22;;;;;;;12.70;11.10;;;;;;;20.51;100.00;97942.02;106982;1266;24370;-79
2023/08/23 02:09:50;;;;;;;11.90;10.00;;;;;;;20.48;100.00;97946.17;106887;1263;25547;-80
2023/08/23 02:12:18;;;;;;;13.80;11.40;;;;;;;20.43;100.00;97956.97;106842;1270;25724;-80
2023/08/23 02:14:47;;;;;;;13.10;11.70;;;;;;;20.38;100.00;97964.52;106881;1279;22618;-80
2023/08/23 02:17:15;;;;;;;13.40;12.10;;;;;;;20.35;100.00;97969.16;106868;1265;25479;-80
2023/08/23 02:19:43;;;;;;;15.80;13.90;;;;;;;20.33;100.00;97970.23;106756;1276;24215;-80
2023/08/23 02:22:11;;;;;;;16.20;14.50;;;;;;;20.31;100.00;97971.90;107082;1265;24263;-80
2023/08/23 02:24:39;;;;;;;16.10;14.30;;;;;;;20.27;100.00;97976.44;107020;1279;22703;-80
2023/08/23 02:27:07;;;;;;;16.80;12.80;;;;;;;20.22;100.00;97970.00;106948;1268;22600;-80
2023/08/23 02:29:36;;;;;;;18.90;13.80;;;;;;;20.20;100.00;97959.64;106888;1268;24877;-81
2023/08/23 02:32:07;;;;;;;14.60;13.20;;;;;;;20.21;100.00;97956.39;106873;1265;22530;-80
2023/08/23 02:34:35;;;;;;;15.50;13.90;;;;;;;20.23;100.00;97953.77;106893;1266;25477;-79
2023/08/23 02:37:05;;;;;;;14.00;12.40;;;;;;;20.26;100.00;97955.92;106975;1265;22829;-79
2023/08/23 02:39:33;;;;;;;15.00;13.40;;;;;;;20.26;100.00;97954.42;106915;1265;22751;-79
2023/08/23 02:42:01;;;;;;;16.10;14.50;;;;;;;20.25;100.00;97950.13;106975;1279;22541;-79
2023/08/23 02:44:29;;;;;;;14.80;13.20;;;;;;;20.23;100.00;97951.50;106986;1265;22657;-79
2023/08/23 02:46:57;;;;;;;17.40;13.90;;;;;;;20.21;100.00;97954.49;106973;1279;22536;-80
2023/08/23 02:49:25;;;;;;;16.50;14.90;;;;;;;20.18;100.00;97959.67;106966;1279;22644;-79
2023/08/23 02:51:53;;;;;;;17.80;16.00;;;;;;;20.19;100.00;97967.77;106930;1273;22650;-79
2023/08/23 02:54:21;;;;;;;18.40;16.60;;;;;;;20.18;100.00;97970.45;106889;1267;25481;-79
2023/08/23 02:56:50;;;;;;;21.10;18.50;;;;;;;20.10;100.00;97975.70;106988;1280;22690;-79
2023/08/23 02:59:18;;;;;;;18.70;16.70;;;;;;;20.06;100.00;97976.64;106884;1259;22591;-79
2023/08/23 03:01:47;;;;;;;19.20;17.30;;;;;;;20.04;100.00;97979.30;106857;1279;22551;-79
2023/08/23 03:04:15;;;;;;;17.50;15.70;;;;;;;20.00;100.00;97988.38;106839;1265;22520;-79
2023/08/23 03:06:45;;;;;;;19.50;17.50;;;;;;;19.97;100.00;97985.81;106887;1265;22534;-79
2023/08/23 03:09:14;;;;;;;18.50;16.40;;;;;;;19.95;100.00;97980.61;106890;1280;24510;-79
2023/08/23 03:11:42;;;;;;;19.00;16.70;;;;;;;19.92;100.00;97974.23;106901;1266;22543;-80
2023/08/23 03:14:10;;;;;;;18.90;15.40;;;;;;;19.91;100.00;97973.27;106981;1275;23294;-79
2023/08/23 03:16:38;;;;;;;20.60;17.00;;;;;;;19.93;100.00;97971.52;106935;1265;22597;-79
2023/08/23 03:19:07;;;;;;;17.60;15.80;;;;;;;19.94;100.00;97961.86;106829;1270;25486;-80
2023/08/23 03:21:35;;;;;;;19.10;17.30;;;;;;;19.95;100.00;97952.18;106961;1268;22776;-80
2023/08/23 03:24:04;;;;;;;19.90;17.90;;;;;;;19.93;100.00;97956.20;106936;1278;22726;-80
2023/08/23 03:26:32;;;;;;;19.70;17.80;;;;;;;19.92;100.00;97955.87;107006;1268;25491;-80
2023/08/23 03:29:00;;;;;;;20.30;18.40;;;;;;;19.91;100.00;97958.05;106981;1276;24509;-80
2023/08/23 03:31:28;;;;;;;20.70;18.70;;;;;;;19.87;100.00;97953.04;106901;1268;22799;-79
2023/08/23 03:33:57;;;;;;;20.00;18.00;;;;;;;19.85;100.00;97946.73;106883;1280;22565;-79
2023/08/23 03:36:25;;;;;;;22.60;20.20;;;;;;;19.86;100.00;97948.48;106959;1263;23146;-81
2023/08/23 03:38:53;;;;;;;20.00;18.10;;;;;;;19.85;100.00;97949.21;106956;1279;22646;-81
2023/08/23 03:41:22;;;;;;;21.60;19.50;;;;;;;19.84;100.00;97954.37;106990;1265;22573;-78
2023/08/23 03:43:50;;;;;;;21.40;17.70;;;;;;;19.86;100.00;97960.50;106852;1280;22624;-78
2023/08/23 03:46:25;;;;;;;20.40;18.40;;;;;;;19.87;100.00;97968.48;106852;1279;22549;-80
2023/08/23 03:48:53;;;;;;;21.00;19.00;;;;;;;19.87;100.00;97963.18;106970;1272;22559;-80
2023/08/23 03:51:22;;;;;;;21.30;19.20;;;;;;;19.86;100.00;97963.16;106838;1269;22567;-79
2023/08/23 03:53:50;;;;;;;21.90;19.50;;;;;;;19.87;100.00;97959.98;106887;1268;22626;-79
2023/08/23 03:56:18;;;;;;;23.40;20.00;;;;;;;19.89;100.00;97964.17;106821;1274;22558;-80
2023/08/23 03:58:46;;;;;;;23.60;21.30;;;;;;;19.89;100.00;97968.70;106907;1268;22642;-80
2023/08/23 04:01:14;;;;;;;24.80;22.50;;;;;;;19.88;100.00;97964.16;106946;1265;25365;-80
2023/08/23 04:03:43;;;;;;;26.40;23.80;;;;;;;19.87;100.00;97965.00;106892;1268;22531;-80
2023/08/23 04:06:12;;;;;;;26.80;24.20;;;;;;;19.89;100.00;97966.67;106702;1268;22541;-79
2023/08/23 04:08:40;;;;;;;31.40;28.40;;;;;;;19.91;100.00;97965.84;106944;1268;25491;-80
2023/08/23 04:11:08;;;;;;;30.30;27.20;;;;;;;19.91;100.00;97963.05;106821;1268;24220;-80
2023/08/23 04:13:37;;;;;;;29.00;26.30;;;;;;;19.94;100.00;97961.63;106778;1272;22585;-80
2023/08/23 04:16:05;;;;;;;29.70;26.80;;;;;;;19.97;100.00;97972.93;106861;1271;22545;-79
2023/08/23 04:18:33;;;;;;;29.40;26.30;;;;;;;19.99;100.00;97981.70;107001;1268;22589;-80
2023/08/23 04:21:02;;;;;;;28.70;26.10;;;;;;;19.99;100.00;97975.06;107037;1279;24380;-81
2023/08/23 04:23:30;;;;;;;33.50;30.20;;;;;;;20.03;100.00;97968.58;107126;1268;24235;-81
2023/08/23 04:25:58;;;;;;;37.50;34.10;;;;;;;20.07;100.00;97967.45;106930;1260;25463;-86
2023/08/23 04:28:26;;;;;;;36.10;32.70;;;;;;;20.11;100.00;97968.83;106843;1280;25302;-83
2023/08/23 04:31:02;;;;;;;40.10;36.40;;;;;;;20.12;100.00;97973.86;106952;1279;25375;-86
2023/08/23 04:33:37;;;;;;;39.90;36.10;;;;;;;20.13;100.00;97980.30;106884;1268;22529;-81
2023/08/23 04:36:06;;;;;;;37.10;33.70;;;;;;;20.15;100.00;97984.73;106779;1267;22768;-81
2023/08/23 04:38:34;;;;;;;37.20;33.70;;;;;;;20.16;100.00;97986.61;106903;1280;24395;-82
2023/08/23 04:41:04;;;;;;;39.10;35.30;;;;;;;20.15;100.00;97986.84;107008;1272;22540;-83
2023/08/23 04:43:33;;;;;;;39.20;35.20;;;;;;;20.16;100.00;97993.58;107015;1272;22636;-83
2023/08/23 04:46:06;;;;;;;36.70;33.20;;;;;;;20.14;100.00;97987.90;106884;1280;25509;-82
2023/08/23 04:48:34;;;;;;;38.00;34.40;;;;;;;20.13;100.00;97989.45;106893;1279;22654;-83
2023/08/23 04:51:04;;;;;;;39.50;35.60;;;;;;;20.16;100.00;97993.25;107007;1270;22606;-82
2023/08/23 04:53:33;;;;;;;37.40;34.10;;;;;;;20.17;100.00;97994.76;107088;1268;22572;-83
2023/08/23 04:56:02;;;;;;;39.50;35.90;;;;;;;20.17;100.00;97999.75;106986;1265;25406;-84
2023/08/23 04:58:30;;;;;;;37.90;34.30;;;;;;;20.19;100.00;98008.48;107001;1280;23014;-80
2023/08/23 05:01:04;;;;;;;40.10;35.90;;;;;;;20.18;100.00;98013.92;107044;1279;22536;-81
2023/08/23 05:03:35;;;;;;;40.30;36.10;;;;;;;20.17;100.00;98014.92;106918;1267;22785;-84
2023/08/23 05:06:03;;;;;;;42.70;38.80;;;;;;;20.18;100.00;98015.48;107403;1265;22817;-82
2023/08/23 05:08:33;;;;;;;39.80;36.20;;;;;;;20.18;100.00;98010.82;107680;1279;22487;-85
2023/08/23 05:11:05;;;;;;;37.50;33.90;;;;;;;20.19;100.00;98011.61;107373;1273;22581;-80
2023/08/23 05:13:33;;;;;;;37.50;34.00;;;;;;;20.20;100.00;98013.96;106750;1270;24994;-81
2023/08/23 05:16:01;;;;;;;36.80;33.40;;;;;;;20.21;100.00;98017.83;106870;1275;22775;-81
2023/08/23 05:18:30;;;;;;;37.10;33.70;;;;;;;20.21;100.00;98018.92;106948;1275;24243;-86
2023/08/23 05:21:02;;;;;;;33.30;30.10;;;;;;;20.20;100.00;98017.63;106928;1280;24421;-86
2023/08/23 05:23:31;;;;;;;34.90;31.40;;;;;;;20.17;100.00;98013.44;106964;1280;22539;-87
2023/08/23 05:26:00;;;;;;;38.20;32.50;;;;;;;20.18;100.00;98012.05;106958;1268;22832;-86
2023/08/23 05:28:28;;;;;;;35.40;31.90;;;;;;;20.19;100.00;98011.76;107115;1277;22573;-85
2023/08/23 05:30:57;;;;;;;35.30;31.70;;;;;;;20.20;100.00;98019.52;107242;1280;23609;-87
2023/08/23 05:33:27;;;;;;;39.40;34.20;;;;;;;20.24;100.00;98020.94;106808;1279;22543;-87
2023/08/23 05:35:55;;;;;;;37.50;33.50;;;;;;;20.27;100.00;98025.70;106906;1277;22588;-88
2023/08/23 05:38:24;;;;;;;41.30;35.60;;;;;;;20.30;100.00;98032.31;106906;1274;23929;-88
2023/08/23 05:40:53;;;;;;;40.00;35.50;;;;;;;20.32;100.00;98029.20;106872;1277;22530;-87
2023/08/23 05:43:22;;;;;;;38.80;34.70;;;;;;;20.37;100.00;98031.14;106890;1259;22551;-87
2023/08/23 05:45:54;;;;;;;40.60;35.70;;;;;;;20.42;100.00;98033.41;106729;1267;22652;-88
2023/08/23 05:48:24;;;;;;;42.50;38.20;;;;;;;20.46;100.00;98034.59;106881;1280;22790;-87
2023/08/23 05:50:52;;;;;;;40.10;35.80;;;;;;;20.45;100.00;98030.81;106928;1280;22600;-86
2023/08/23 05:53:20;;;;;;;39.40;35.60;;;;;;;20.45;100.00;98032.92;106916;1273;25307;-87
2023/08/23 05:55:49;;;;;;;38.10;34.30;;;;;;;20.39;100.00;98033.77;106813;1280;25416;-86
2023/08/23 05:58:18;;;;;;;36.90;33.50;;;;;;;20.37;100.00;98037.85;106882;1263;23148;-86
2023/08/23 06:00:48;;;;;;;36.60;33.40;;;;;;;20.33;100.00;98038.63;106854;1268;22559;-88
2023/08/23 06:03:16;;;;;;;35.90;32.80;;;;;;;20.33;100.00;98038.54;106912;1265;22591;-87
2023/08/23 06:05:45;;;;;;;36.70;33.10;;;;;;;20.34;100.00;98039.59;106777;1264;25311;-87
2023/08/23 06:08:14;;;;;;;35.50;32.30;;;;;;;20.28;100.00;98039.70;106737;1268;23136;-87
2023/08/23 06:10:42;;;;;;;35.20;31.80;;;;;;;20.22;100.00;98041.67;106697;1280;22631;-85
2023/08/23 06:13:10;;;;;;;34.40;31.40;;;;;;;20.22;100.00;98045.98;106649;1273;24202;-88
2023/08/23 06:15:38;;;;;;;32.40;29.40;;;;;;;20.20;100.00;98039.67;106848;1280;22913;-88
2023/08/23 06:18:06;;;;;;;35.20;31.80;;;;;;;20.16;100.00;98037.33;106905;1280;22703;-88
2023/08/23 06:20:35;;;;;;;34.20;30.90;;;;;;;20.18;100.00;98032.45;106896;1279;22649;-86
2023/08/23 06:23:03;;;;;;;32.70;29.70;;;;;;;20.21;100.00;98032.20;106805;1256;22650;-86
2023/08/23 06:25:31;;;;;;;33.70;30.60;;;;;;;20.27;100.00;98034.27;106828;1280;22526;-88
2023/08/23 06:27:59;;;;;;;33.60;30.50;;;;;;;20.27;100.00;98042.66;106873;1280;24066;-87
2023/08/23 06:30:27;;;;;;;34.20;31.30;;;;;;;20.30;100.00;98041.39;106675;1279;22531;-87
2023/08/23 06:32:55;;;;;;;33.30;30.20;;;;;;;20.38;100.00;98039.59;107020;1265;22550;-85
2023/08/23 06:35:26;;;;;;;33.80;29.90;;;;;;;20.42;100.00;98041.32;106900;1271;22530;-86
2023/08/23 06:37:54;;;;;;;34.80;31.60;;;;;;;20.48;100.00;98041.04;106914;1280;22773;-88
2023/08/23 06:40:22;;;;;;;34.60;31.30;;;;;;;20.53;100.00;98041.15;106869;1279;22533;-87
2023/08/23 06:42:50;;;;;;;32.50;29.60;;;;;;;20.54;100.00;98042.21;106868;1268;22540;-86
2023/08/23 06:45:18;;;;;;;37.30;33.40;;;;;;;20.59;100.00;98051.92;106922;1279;25443;-86
2023/08/23 06:47:49;;;;;;;36.20;32.40;;;;;;;20.62;100.00;98053.08;106807;1267;22633;-87
2023/08/23 06:50:17;;;;;;;37.60;33.90;;;;;;;20.63;100.00;98053.73;106787;1279;22714;-86
2023/08/23 06:52:45;;;;;;;34.60;31.10;;;;;;;20.67;100.00;98057.55;106864;1280;25307;-86
2023/08/23 06:55:14;;;;;;;41.10;33.50;;;;;;;20.67;100.00;98060.60;106917;1279;22579;-87
2023/08/23 06:57:42;;;;;;;35.30;31.80;;;;;;;20.64;100.00;98061.88;106869;1279;22693;-86
2023/08/23 07:00:12;;;;;;;36.40;32.90;;;;;;;20.67;100.00;98062.48;106883;1268;24217;-86
2023/08/23 07:02:40;;;;;;;35.90;32.40;;;;;;;20.73;100.00;98065.11;106923;1266;23151;-86
2023/08/23 07:05:08;;;;;;;34.80;31.50;;;;;;;20.79;100.00;98071.95;106787;1280;22523;-87
2023/08/23 07:07:36;;;;;;;35.90;32.30;;;;;;;20.80;100.00;98073.99;106881;1279;22640;-86
2023/08/23 07:10:05;;;;;;;35.20;31.60;;;;;;;20.76;100.00;98075.71;106828;1280;26208;-86
2023/08/23 07:12:54;;;;;;;38.10;34.20;;;;;;;20.73;100.00;98076.99;106793;1271;22870;-86
2023/08/23 07:15:22;;;;;;;39.90;35.80;;;;;;;20.70;100.00;98085.47;106952;1268;22831;-85
2023/08/23 07:17:51;;;;;;;50.80;43.30;;;;;;;20.67;100.00;98084.61;107570;1280;24311;-86
2023/08/23 07:20:19;;;;;;;51.70;45.20;;;;;;;20.59;100.00;98086.19;106876;1256;25596;-86
2023/08/23 07:22:47;;;;;;;50.20;43.40;;;;;;;20.51;100.00;98091.64;106932;1279;22546;-87
2023/08/23 07:25:16;;;;;;;64.10;46.90;;;;;;;20.46;100.00;98092.85;106969;1279;22589;-87
2023/08/23 07:27:44;;;;;;;49.70;44.20;;;;;;;20.46;100.00;98091.27;106894;1279;24322;-88
2023/08/23 07:30:13;;;;;;;52.30;42.70;;;;;;;20.47;100.00;98091.92;106869;1279;25342;-87
2023/08/23 07:32:41;;;;;;;50.40;44.60;;;;;;;20.45;100.00;98091.56;106871;1268;24247;-87
2023/08/23 07:35:09;;;;;;;61.60;46.90;;;;;;;20.53;100.00;98089.86;106874;1279;22622;-89
2023/08/23 07:37:38;;;;;;;54.40;45.40;;;;;;;20.57;100.00;98089.90;107362;1279;25523;-86
2023/08/23 07:40:07;;;;;;;59.60;46.80;;;;;;;20.64;100.00;98095.98;106746;1274;24677;-86
2023/08/23 07:42:35;;;;;;;45.80;41.00;;;;;;;20.68;100.00;98095.35;106739;1268;25525;-87
2023/08/23 07:45:04;;;;;;;51.20;44.80;;;;;;;20.68;100.00;98101.68;106821;1279;22569;-87
2023/08/23 07:47:32;;;;;;;48.70;43.40;;;;;;;20.68;100.00;98105.45;106850;1279;22572;-87
2023/08/23 07:50:02;;;;;;;51.50;42.00;;;;;;;20.73;100.00;98111.49;106843;1279;22664;-86
2023/08/23 07:52:30;;;;;;;51.30;44.40;;;;;;;20.77;100.00;98111.50;106846;1279;22706;-86
2023/08/23 07:54:58;;;;;;;49.10;43.50;;;;;;;20.81;100.00;98112.52;106776;1268;22643;-87
2023/08/23 07:57:26;;;;;;;51.50;41.80;;;;;;;20.83;100.00;98111.46;106911;1266;24067;-86
2023/08/23 07:59:55;;;;;;;50.00;44.90;;;;;;;20.84;100.00;98114.30;106928;1268;25259;-87
2023/08/23 08:02:23;;;;;;;41.20;36.90;;;;;;;20.86;100.00;98114.57;106907;1279;22551;-87
2023/08/23 08:04:51;;;;;;;42.10;37.70;;;;;;;20.84;100.00;98117.05;106934;1280;22766;-88
2023/08/23 08:07:19;;;;;;;42.10;36.90;;;;;;;20.82;100.00;98116.79;107059;1279;22781;-87
2023/08/23 08:10:07;;;;;;;43.90;39.30;;;;;;;20.85;100.00;98115.42;106937;1275;25391;-86
2023/08/23 08:12:35;;;;;;;42.30;37.90;;;;;;;20.92;100.00;98122.60;106891;1265;22860;-86
2023/08/23 08:15:06;;;;;;;43.70;39.00;;;;;;;20.96;100.00;98122.05;106887;1275;25485;-87
2023/08/23 08:17:34;;;;;;;43.80;39.20;;;;;;;21.04;100.00;98124.79;106768;1268;22543;-86
2023/08/23 08:20:08;;;;;;;38.70;34.30;;;;;;;21.15;100.00;98123.81;107854;1277;22572;-86
2023/08/23 08:22:37;;;;;;;46.30;35.00;;;;;;;21.17;100.00;98126.91;107159;1279;22695;-85
2023/08/23 08:25:06;;;;;;;41.10;33.70;;;;;;;21.07;100.00;98129.84;106872;1279;23928;-86
2023/08/23 08:27:35;;;;;;;40.20;31.80;;;;;;;20.98;100.00;98133.90;106908;1268;24264;-86
2023/08/23 08:30:04;;;;;;;38.70;31.80;;;;;;;20.94;100.00;98134.85;106896;1265;22751;-86
2023/08/23 08:32:33;;;;;;;40.00;33.30;;;;;;;20.94;100.00;98135.47;106943;1279;24295;-86
2023/08/23 08:35:01;;;;;;;37.50;32.90;;;;;;;20.93;100.00;98139.04;106888;1265;27643;-86
2023/08/23 08:37:29;;;;;;;37.00;33.30;;;;;;;20.89;100.00;98139.89;106912;1279;25389;-87
2023/08/23 08:39:57;;;;;;;40.40;34.70;;;;;;;20.91;100.00;98145.25;106775;1279;22635;-86
2023/08/23 08:42:26;;;;;;;41.50;32.70;;;;;;;20.95;100.00;98139.09;106923;1270;24227;-87
2023/08/23 08:44:54;;;;;;;39.70;31.90;;;;;;;21.05;100.00;98143.20;106958;1266;22544;-87
2023/08/23 08:47:23;;;;;;;37.20;33.50;;;;;;;21.17;100.00;98143.81;106877;1277;24409;-87
2023/08/23 08:49:51;;;;;;;38.30;34.20;;;;;;;21.23;100.00;98141.42;106928;1268;23893;-85
2023/08/23 08:52:23;;;;;;;36.50;32.80;;;;;;;21.35;100.00;98141.73;107503;1277;22566;-84
2023/08/23 08:54:53;;;;;;;38.30;32.80;;;;;;;21.41;100.00;98138.89;107577;1280;22677;-87
2023/08/23 08:57:23;;;;;;;39.60;34.20;;;;;;;21.48;100.00;98136.10;107512;1280;24259;-85
2023/08/23 08:59:53;;;;;;;38.80;35.20;;;;;;;21.64;100.00;98137.94;107749;1279;26612;-86
2023/08/23 09:02:23;;;;;;;37.60;33.10;;;;;;;21.80;100.00;98134.14;106994;1278;25837;-87
2023/08/23 09:04:52;;;;;;;33.90;30.50;;;;;;;21.96;100.00;98140.67;106852;1268;24475;-87
2023/08/23 09:07:20;;;;;;;34.40;31.00;;;;;;;22.05;100.00;98140.41;106924;1269;24368;-86
2023/08/23 09:09:50;;;;;;;32.60;29.10;;;;;;;22.25;100.00;98140.98;106967;1278;25519;-87
2023/08/23 09:12:19;;;;;;;29.90;27.20;;;;;;;22.46;100.00;98141.27;106957;1268;22534;-87
2023/08/23 09:14:49;;;;;;;27.30;24.80;;;;;;;22.63;99.99;98136.07;106864;1268;24238;-87
2023/08/23 09:17:22;;;;;;;28.70;26.00;;;;;;;22.91;100.00;98133.92;106884;1280;22551;-85
2023/08/23 09:19:51;;;;;;;28.00;25.00;;;;;;;23.23;100.00;98130.76;106861;1268;25489;-86
2023/08/23 09:22:20;;;;;;;27.60;25.00;;;;;;;23.55;99.84;98133.89;106877;1280;25316;-86
2023/08/23 09:24:49;;;;;;;27.50;24.80;;;;;;;23.74;99.48;98133.30;106775;1271;25487;-86
2023/08/23 09:27:20;;;;;;;29.30;26.20;;;;;;;23.77;92.39;98142.76;106922;1280;23181;-85
2023/08/23 09:30:05;;;;;;;30.70;26.40;;;;;;;23.56;93.19;98142.94;106808;1271;27202;-85
2023/08/23 09:32:35;;;;;;;32.60;26.70;;;;;;;23.44;94.00;98142.52;106874;1265;22526;-86
2023/08/23 09:35:17;;;;;;;35.30;27.10;;;;;;;23.40;95.17;98142.31;106862;1280;24210;-86
2023/08/23 09:37:47;;;;;;;30.90;27.90;;;;;;;23.44;93.46;98142.13;106734;1280;22999;-88
2023/08/23 09:40:17;;;;;;;33.30;25.80;;;;;;;23.55;91.14;98142.30;106984;1280;24215;-85
2023/08/23 09:42:46;;;;;;;28.20;25.50;;;;;;;23.62;91.83;98139.61;106881;1280;25366;-86
2023/08/23 09:45:20;;;;;;;28.20;25.60;;;;;;;23.62;90.93;98141.50;106863;1265;22591;-87
2023/08/23 09:47:59;;;;;;;27.40;23.90;;;;;;;23.63;92.00;98140.90;106920;1278;22536;-87
2023/08/23 09:50:27;;;;;;;29.30;24.00;;;;;;;23.88;93.03;98135.94;106897;1275;25335;-87
2023/08/23 09:53:01;;;;;;;26.30;22.00;;;;;;;24.23;94.27;98135.00;106775;1279;26636;-87
2023/08/23 09:55:31;;;;;;;23.90;21.50;;;;;;;24.67;94.00;98132.60;106929;1279;24458;-87
2023/08/23 09:58:01;;;;;;;23.30;20.70;;;;;;;24.97;92.32;98134.69;106915;1280;22530;-85
2023/08/23 10:00:29;;;;;;;23.40;21.00;;;;;;;25.29;91.97;98133.71;106966;1269;25470;-86
2023/08/23 10:02:58;;;;;;;20.30;18.20;;;;;;;25.64;91.09;98131.08;106840;1278;22536;-87
2023/08/23 10:05:27;;;;;;;21.20;17.60;;;;;;;26.00;91.17;98127.95;106983;1266;25220;-87
2023/08/23 10:07:57;;;;;;;19.70;16.50;;;;;;;26.15;86.94;98127.45;106957;1280;22746;-87
2023/08/23 10:10:27;;;;;;;22.60;20.40;;;;;;;25.93;83.07;98130.15;106904;1267;22534;-88
2023/08/23 10:13:00;;;;;;;18.90;17.00;;;;;;;25.65;81.56;98132.09;106827;1266;22537;-88
2023/08/23 10:15:32;;;;;;;20.10;17.70;;;;;;;25.25;79.66;98133.84;106848;1276;25373;-88
2023/08/23 10:18:03;;;;;;;18.80;17.00;;;;;;;24.89;80.37;98132.61;106913;1279;22563;-86
2023/08/23 10:20:36;;;;;;;20.50;17.80;;;;;;;24.68;82.83;98126.46;106813;1266;25348;-86
2023/08/23 10:23:13;;;;;;;18.90;16.70;;;;;;;24.76;81.68;98123.43;106850;1268;22537;-85
2023/08/23 10:25:46;;;;;;;19.00;15.20;;;;;;;24.96;82.87;98122.95;106810;1279;22547;-86
2023/08/23 10:28:18;;;;;;;16.20;14.40;;;;;;;25.30;83.47;98119.99;107185;1279;25233;-86
2023/08/23 10:30:49;;;;;;;20.60;17.00;;;;;;;25.61;80.79;98128.16;107434;1269;23885;-86
2023/08/23 10:33:19;;;;;;;24.60;17.40;;;;;;;25.61;77.89;98130.20;106866;1279;22531;-86
2023/08/23 10:35:47;;;;;;;21.30;18.40;;;;;;;25.55;80.19;98127.98;106838;1279;22554;-86
2023/08/23 10:38:16;;;;;;;21.40;17.60;;;;;;;25.71;80.94;98125.88;106911;1268;25506;-85
2023/08/23 10:40:45;;;;;;;24.50;19.30;;;;;;;25.94;78.37;98124.09;106902;1279;22549;-86
2023/08/23 10:43:19;;;;;;;24.10;18.80;;;;;;;25.98;76.11;98119.20;106887;1268;25288;-86
2023/08/23 10:45:50;;;;;;;21.40;16.30;;;;;;;25.96;78.67;98114.30;106910;1279;22541;-86
2023/08/23 10:48:20;;;;;;;20.90;18.60;;;;;;;26.07;78.09;98111.76;106893;1279;22607;-87
2023/08/23 10:50:50;;;;;;;21.40;19.20;;;;;;;26.05;76.14;98112.16;106908;1280;22651;-88
2023/08/23 10:53:19;;;;;;;22.30;18.10;;;;;;;25.96;76.08;98110.60;106713;1268;25495;-86
2023/08/23 10:55:48;;;;;;;20.60;17.60;;;;;;;25.94;74.41;98107.60;106787;1279;22546;-86
2023/08/23 10:58:17;;;;;;;19.70;17.60;;;;;;;25.92;73.91;98106.64;106779;1268;24204;-86
2023/08/23 11:00:50;;;;;;;21.70;17.80;;;;;;;26.04;74.02;98107.73;106847;1268;24455;-87
2023/08/23 11:03:20;;;;;;;21.20;17.20;;;;;;;26.26;73.82;98107.39;107136;1279;22657;-86
2023/08/23 11:05:48;;;;;;;20.50;16.80;;;;;;;26.27;73.18;98105.96;107049;1268;25239;-85
2023/08/23 11:08:17;;;;;;;18.80;16.30;;;;;;;26.08;72.94;98106.63;107117;1268;22623;-86
2023/08/23 11:10:45;;;;;;;24.30;16.00;;;;;;;25.93;73.81;98104.13;106887;1280;24212;-88
2023/08/23 11:13:13;;;;;;;34.00;16.80;;;;;;;25.95;73.10;98101.61;106838;1279;22566;-87
2023/08/23 11:15:42;;;;;;;18.70;14.80;;;;;;;26.16;73.49;98105.03;107131;1265;24717;-87
2023/08/23 11:18:12;;;;;;;16.50;14.70;;;;;;;26.46;73.19;98103.86;106983;1280;22649;-85